Time;durP1;ratioP1;P1;durP2;ratioP2;P2;SDS_P1;SDS_P2;PMS_P1;PMS_P2;Temp;Humidity;BMP_temperature;BMP_pressure;BME280_temperature;BME280_humidity;BME280_pressure;Samples;Min_cycle;Max_cycle;Signal;HPM_P1;HPM_P2
2022/11/19 00:01:33;;;;;;;8.60;5.70;;;12.30;54.50;;;;;;5068720;28;20476;-80
2022/11/19 00:04:00;;;;;;;7.90;6.40;;;12.30;54.50;;;;;;5070309;28;20450;-80
2022/11/19 00:06:30;;;;;;;11.43;6.60;;;12.20;54.50;;;;;;5074573;28;20469;-79
2022/11/19 00:08:57;;;;;;;9.93;6.13;;;12.20;54.50;;;;;;5072166;28;20473;-77
2022/11/19 00:14:08;;;;;;;10.10;6.80;;;12.20;54.40;;;;;;5058255;28;20442;-79
2022/11/19 00:16:36;;;;;;;11.50;7.00;;;12.20;54.40;;;;;;5060940;28;20474;-79
2022/11/19 00:19:04;;;;;;;9.47;6.30;;;12.20;54.30;;;;;;5067317;28;20461;-78
2022/11/19 00:21:33;;;;;;;11.67;6.90;;;12.20;54.40;;;;;;5064093;28;20476;-78
2022/11/19 00:24:01;;;;;;;10.60;6.30;;;12.20;54.30;;;;;;5056851;28;20473;-79
2022/11/19 00:26:29;;;;;;;10.07;6.33;;;12.20;54.30;;;;;;5068334;28;20470;-79
2022/11/19 00:28:57;;;;;;;8.47;6.07;;;12.10;54.10;;;;;;5063745;28;20452;-78
2022/11/19 00:31:25;;;;;;;11.67;7.33;;;12.10;54.20;;;;;;5064013;28;20468;-80
2022/11/19 00:33:53;;;;;;;13.30;6.80;;;12.10;54.10;;;;;;5071464;28;20473;-80
2022/11/19 00:36:22;;;;;;;9.77;6.40;;;12.10;54.10;;;;;;5063242;28;20481;-81
2022/11/19 00:38:51;;;;;;;12.53;6.40;;;12.00;54.00;;;;;;5064637;28;20465;-79
2022/11/19 00:41:19;;;;;;;8.90;6.60;;;12.00;54.00;;;;;;5057742;28;20454;-80
2022/11/19 00:43:47;;;;;;;10.70;7.47;;;12.00;54.00;;;;;;5058680;28;20462;-79
2022/11/19 00:46:16;;;;;;;12.70;7.03;;;11.90;54.00;;;;;;5067348;28;20469;-79
2022/11/19 00:48:44;;;;;;;7.80;6.33;;;11.90;53.90;;;;;;5069086;28;20450;-80
2022/11/19 00:51:12;;;;;;;12.20;6.60;;;11.90;53.90;;;;;;5066766;28;20451;-80
2022/11/19 00:53:40;;;;;;;9.97;6.70;;;11.90;54.00;;;;;;5065819;28;20453;-79
2022/11/19 00:56:10;;;;;;;10.00;6.83;;;11.90;53.90;;;;;;5062981;28;20480;-79
2022/11/19 00:58:38;;;;;;;8.70;6.20;;;11.90;53.90;;;;;;5061293;28;20450;-79
2022/11/19 01:01:06;;;;;;;12.13;7.10;;;11.90;53.80;;;;;;5067572;28;20453;-79
2022/11/19 01:03:34;;;;;;;15.63;6.87;;;11.90;53.80;;;;;;5070300;28;20481;-80
2022/11/19 01:06:02;;;;;;;10.23;6.70;;;11.90;53.80;;;;;;5067107;28;20461;-79
2022/11/19 01:08:30;;;;;;;12.03;7.00;;;11.90;53.80;;;;;;5065220;28;20450;-80
2022/11/19 01:11:04;;;;;;;9.83;6.33;;;11.80;53.60;;;;;;5064563;28;20450;-79
2022/11/19 01:13:36;;;;;;;11.80;6.50;;;11.80;53.70;;;;;;5069163;28;20499;-79
2022/11/19 01:16:05;;;;;;;9.27;6.43;;;11.80;53.80;;;;;;5071533;28;20473;-79
2022/11/19 01:18:33;;;;;;;9.87;6.90;;;11.80;53.60;;;;;;5066683;28;20454;-79
2022/11/19 01:21:01;;;;;;;11.13;7.00;;;11.80;53.80;;;;;;5068969;28;20458;-78
2022/11/19 01:23:29;;;;;;;10.90;6.77;;;11.80;53.70;;;;;;5062677;28;20460;-79
2022/11/19 01:25:58;;;;;;;9.30;6.00;;;11.80;53.60;;;;;;5062008;28;20477;-80
2022/11/19 01:28:26;;;;;;;10.90;6.97;;;11.70;53.60;;;;;;5066407;28;20450;-79
2022/11/19 01:30:55;;;;;;;11.00;6.73;;;11.80;53.70;;;;;;5066694;28;20453;-80
2022/11/19 01:33:23;;;;;;;9.33;6.50;;;11.70;53.60;;;;;;5069588;28;20461;-80
2022/11/19 01:35:55;;;;;;;10.27;6.80;;;11.70;53.50;;;;;;5058821;28;20478;-80
2022/11/19 01:38:23;;;;;;;9.47;6.60;;;11.70;53.40;;;;;;5066146;28;20450;-80
2022/11/19 01:40:51;;;;;;;11.73;6.73;;;11.70;53.50;;;;;;5054418;28;20925;-80
2022/11/19 01:43:19;;;;;;;9.80;6.40;;;11.60;53.40;;;;;;5059376;28;20446;-79
2022/11/19 01:45:48;;;;;;;11.07;6.33;;;11.60;53.60;;;;;;5071656;28;20466;-80
2022/11/19 01:48:20;;;;;;;7.63;6.13;;;11.70;53.50;;;;;;5068588;28;20458;-80
2022/11/19 01:50:50;;;;;;;11.07;6.93;;;11.60;53.40;;;;;;5057104;28;20454;-80
2022/11/19 01:53:18;;;;;;;8.53;6.30;;;11.60;53.50;;;;;;5055878;28;20485;-81
2022/11/19 01:55:46;;;;;;;10.50;6.50;;;11.60;53.50;;;;;;5059479;28;20489;-78
2022/11/19 01:58:15;;;;;;;9.73;6.70;;;11.60;53.20;;;;;;5070295;28;20464;-79
2022/11/19 02:00:42;;;;;;;9.30;6.63;;;11.60;53.50;;;;;;5072393;28;20459;-79
2022/11/19 02:03:11;;;;;;;10.30;6.40;;;11.60;53.40;;;;;;5069895;28;20465;-78
2022/11/19 02:05:41;;;;;;;10.10;6.87;;;11.60;53.30;;;;;;5066301;28;20461;-79
2022/11/19 02:08:10;;;;;;;8.87;6.17;;;11.60;53.20;;;;;;5068591;28;20453;-78
2022/11/19 02:10:42;;;;;;;11.33;7.47;;;11.50;53.30;;;;;;5059836;28;20450;-79
2022/11/19 02:13:13;;;;;;;10.33;6.70;;;11.50;53.30;;;;;;5064647;28;20462;-79
2022/11/19 02:15:42;;;;;;;11.67;6.33;;;11.50;53.30;;;;;;5067069;28;20474;-79
2022/11/19 02:18:24;;;;;;;9.30;6.50;;;11.50;53.20;;;;;;5058899;28;20442;-82
2022/11/19 02:21:15;;;;;;;11.60;7.47;;;11.50;53.40;;;;;;5069604;28;20454;-83
2022/11/19 02:24:25;;;;;;;9.77;6.50;;;11.50;53.20;;;;;;5059395;28;20461;-82
2022/11/19 02:27:31;;;;;;;10.43;7.10;;;11.50;53.20;;;;;;5079144;28;20464;-83
2022/11/19 02:30:08;;;;;;;12.63;6.80;;;11.40;53.10;;;;;;5076881;28;20453;-83
2022/11/19 02:32:47;;;;;;;13.37;9.10;;;11.40;53.40;;;;;;5082068;28;20461;-81
2022/11/19 02:35:19;;;;;;;20.53;8.40;;;11.40;53.10;;;;;;5068486;28;20477;-83
2022/11/19 02:37:49;;;;;;;11.33;7.43;;;11.40;53.30;;;;;;5076074;28;20458;-82
2022/11/19 02:40:20;;;;;;;11.90;7.93;;;11.40;53.10;;;;;;5075137;28;20461;-83
2022/11/19 02:42:52;;;;;;;10.57;7.30;;;11.40;53.20;;;;;;5079616;28;20476;-82
2022/11/19 02:45:23;;;;;;;11.03;7.03;;;11.40;53.20;;;;;;5079748;28;20480;-84
2022/11/19 02:47:52;;;;;;;11.13;7.87;;;11.30;53.10;;;;;;5066904;28;20442;-83
2022/11/19 02:50:22;;;;;;;13.27;7.03;;;11.30;53.10;;;;;;5084448;28;20441;-84
2022/11/19 02:52:50;;;;;;;10.30;7.27;;;11.30;53.20;;;;;;5083553;28;20567;-85
2022/11/19 02:55:19;;;;;;;9.30;6.90;;;11.30;53.30;;;;;;5071300;28;20485;-83
2022/11/19 02:57:49;;;;;;;10.37;6.87;;;11.30;53.20;;;;;;5079262;28;20476;-83
2022/11/19 03:05:52;;;;;;;9.03;6.50;;;11.30;53.10;;;;;;5072059;28;20477;-84
2022/11/19 03:08:20;;;;;;;8.60;6.27;;;11.30;53.20;;;;;;5070725;28;20461;-84
2022/11/19 03:10:52;;;;;;;9.40;6.50;;;11.30;53.30;;;;;;5078912;28;20457;-85
2022/11/19 03:19:04;;;;;;;11.07;6.37;;;11.30;53.20;;;;;;5067062;28;20455;-84
2022/11/19 03:21:34;;;;;;;10.37;6.70;;;11.20;53.00;;;;;;5070556;28;20470;-83
2022/11/19 03:24:05;;;;;;;11.00;6.53;;;11.20;53.00;;;;;;5074190;28;20464;-84
2022/11/19 03:26:34;;;;;;;9.20;6.13;;;11.20;53.10;;;;;;5071748;28;20473;-85
2022/11/19 03:29:02;;;;;;;9.53;5.90;;;11.20;53.10;;;;;;5072509;28;20455;-84
2022/11/19 03:31:30;;;;;;;9.00;6.07;;;11.20;53.10;;;;;;5068133;28;20450;-84
2022/11/19 03:34:01;;;;;;;10.77;6.30;;;11.20;53.00;;;;;;5067732;28;20450;-84
2022/11/19 03:36:31;;;;;;;6.83;5.40;;;11.20;53.10;;;;;;5076679;28;20480;-84
2022/11/19 03:39:02;;;;;;;7.87;5.80;;;11.20;53.20;;;;;;5075233;28;20508;-84
2022/11/19 03:41:30;;;;;;;9.30;6.07;;;11.20;53.10;;;;;;5072512;28;20459;-84
2022/11/19 03:44:01;;;;;;;9.87;5.80;;;11.20;53.10;;;;;;5073589;28;20457;-85
2022/11/19 03:46:31;;;;;;;7.20;5.53;;;11.20;53.00;;;;;;5077650;28;20475;-83
2022/11/19 03:49:00;;;;;;;7.53;5.47;;;11.20;53.00;;;;;;5069588;28;20457;-84
2022/11/19 03:51:30;;;;;;;8.47;6.07;;;11.10;52.80;;;;;;5080371;28;20446;-84
2022/11/19 03:53:58;;;;;;;7.90;5.50;;;11.10;52.90;;;;;;5074942;28;20447;-84
2022/11/19 03:56:26;;;;;;;7.07;5.90;;;11.10;52.90;;;;;;5072678;28;20469;-82
2022/11/19 03:58:54;;;;;;;8.17;5.97;;;11.10;52.90;;;;;;5072938;28;20450;-83
2022/11/19 04:01:22;;;;;;;7.77;6.00;;;11.10;53.00;;;;;;5070426;28;20445;-84
2022/11/19 04:06:33;;;;;;;6.73;5.00;;;11.10;53.00;;;;;;5066166;28;20466;-84
2022/11/19 04:09:01;;;;;;;7.80;5.40;;;11.00;52.80;;;;;;5063871;28;20450;-84
2022/11/19 04:11:29;;;;;;;6.80;5.27;;;11.00;52.80;;;;;;5061565;28;20450;-84
2022/11/19 04:13:57;;;;;;;7.43;5.53;;;11.00;52.90;;;;;;5069901;28;20457;-83
2022/11/19 04:16:25;;;;;;;7.60;5.37;;;11.00;52.80;;;;;;5068796;28;20474;-84
2022/11/19 04:18:53;;;;;;;8.57;5.47;;;11.00;52.90;;;;;;5069901;28;20469;-84
2022/11/19 04:21:21;;;;;;;5.10;4.60;;;11.00;52.70;;;;;;5069850;28;20465;-81
2022/11/19 04:23:50;;;;;;;7.60;5.27;;;11.00;52.80;;;;;;5067574;28;20477;-85
2022/11/19 04:26:18;;;;;;;7.77;5.80;;;10.90;52.70;;;;;;5065034;28;20488;-84
2022/11/19 04:28:46;;;;;;;6.60;4.93;;;11.00;52.60;;;;;;5073891;28;20547;-85
2022/11/19 04:31:14;;;;;;;6.70;4.90;;;10.90;52.90;;;;;;5061257;28;20446;-84
2022/11/19 04:33:44;;;;;;;8.23;5.60;;;10.90;52.70;;;;;;5070090;28;20445;-84
2022/11/19 04:36:12;;;;;;;6.27;4.90;;;10.90;52.70;;;;;;5075604;28;20488;-84
2022/11/19 04:38:40;;;;;;;6.80;5.27;;;10.90;52.80;;;;;;5072047;28;20474;-84
2022/11/19 04:41:09;;;;;;;5.93;4.80;;;10.90;52.60;;;;;;5071575;28;20440;-84
2022/11/19 04:43:37;;;;;;;6.90;5.27;;;10.90;52.80;;;;;;5069243;28;20476;-84
2022/11/19 04:46:05;;;;;;;6.80;5.37;;;10.90;52.60;;;;;;5069891;28;20478;-84
2022/11/19 04:48:34;;;;;;;6.97;5.20;;;10.90;52.70;;;;;;5070367;28;20442;-84
2022/11/19 04:51:02;;;;;;;6.27;4.33;;;10.80;52.70;;;;;;5085664;28;20433;-84
2022/11/19 04:53:30;;;;;;;5.70;4.70;;;10.80;52.80;;;;;;5083383;28;20465;-84
2022/11/19 04:55:58;;;;;;;8.10;5.37;;;10.80;52.70;;;;;;5067083;28;20537;-84
2022/11/19 04:58:27;;;;;;;5.37;4.40;;;10.90;52.70;;;;;;5064613;28;20474;-85
2022/11/19 05:00:55;;;;;;;5.80;4.40;;;10.80;52.60;;;;;;5070969;28;20461;-85
2022/11/19 05:03:23;;;;;;;6.77;5.40;;;10.80;52.70;;;;;;5073793;28;20460;-85
2022/11/19 05:05:51;;;;;;;7.80;4.97;;;10.80;52.50;;;;;;5067673;28;20461;-85
2022/11/19 05:08:19;;;;;;;8.07;5.43;;;10.90;52.70;;;;;;5068002;28;20476;-84
2022/11/19 05:10:47;;;;;;;6.17;5.30;;;10.80;52.60;;;;;;5067986;28;20460;-85
2022/11/19 05:13:15;;;;;;;5.60;4.50;;;10.80;52.70;;;;;;5071287;28;20456;-86
2022/11/19 05:15:44;;;;;;;6.77;5.20;;;10.80;52.70;;;;;;5073019;28;20477;-85
2022/11/19 05:18:12;;;;;;;6.10;4.97;;;10.80;52.60;;;;;;5066052;28;20470;-85
2022/11/19 05:20:41;;;;;;;5.27;4.50;;;10.70;52.50;;;;;;5061294;28;20454;-86
2022/11/19 05:23:08;;;;;;;7.60;5.30;;;10.70;52.70;;;;;;5068140;28;20458;-85
2022/11/19 05:25:36;;;;;;;5.63;4.90;;;10.80;52.70;;;;;;5059752;28;20505;-84
2022/11/19 05:28:05;;;;;;;5.00;4.50;;;10.70;52.60;;;;;;5066423;28;20451;-84
2022/11/19 05:30:33;;;;;;;5.17;4.53;;;10.70;52.80;;;;;;5065853;28;20453;-85
2022/11/19 05:33:02;;;;;;;6.30;5.07;;;10.70;52.60;;;;;;5074830;28;20446;-85
2022/11/19 05:35:30;;;;;;;6.00;4.70;;;10.70;52.60;;;;;;5072747;28;20484;-85
2022/11/19 05:37:58;;;;;;;7.77;5.30;;;10.70;52.50;;;;;;5062418;28;20469;-85
2022/11/19 05:40:26;;;;;;;9.20;5.37;;;10.70;52.60;;;;;;5067024;28;20454;-84
2022/11/19 05:42:54;;;;;;;5.80;4.70;;;10.70;52.60;;;;;;5069229;28;20454;-85
2022/11/19 05:45:22;;;;;;;5.80;4.67;;;10.70;52.50;;;;;;5062918;28;20466;-84
2022/11/19 05:47:54;;;;;;;6.57;4.60;;;10.70;52.60;;;;;;5063153;28;20448;-84
2022/11/19 05:50:23;;;;;;;7.03;4.93;;;10.60;52.50;;;;;;5074669;28;20425;-84
2022/11/19 05:52:51;;;;;;;5.30;4.80;;;10.60;52.70;;;;;;5069416;28;20447;-84
2022/11/19 05:55:20;;;;;;;5.07;4.57;;;10.70;52.70;;;;;;5057364;28;20470;-84
2022/11/19 05:57:47;;;;;;;5.87;4.50;;;10.60;52.50;;;;;;5071845;28;20478;-84
2022/11/19 06:00:16;;;;;;;6.53;5.07;;;10.60;52.60;;;;;;5076193;28;20445;-85
2022/11/19 06:02:45;;;;;;;5.67;5.10;;;10.60;52.60;;;;;;5068726;28;20460;-84
2022/11/19 06:05:13;;;;;;;7.23;5.23;;;10.60;52.60;;;;;;5072081;28;20557;-85
2022/11/19 06:07:42;;;;;;;4.90;4.40;;;10.60;52.60;;;;;;5065337;28;20438;-84
2022/11/19 06:10:10;;;;;;;6.13;5.10;;;10.60;52.40;;;;;;5069324;28;20450;-85
2022/11/19 06:12:38;;;;;;;6.23;5.23;;;10.60;52.50;;;;;;5070197;28;20461;-84
2022/11/19 06:15:12;;;;;;;5.57;4.73;;;10.50;52.40;;;;;;5064054;28;20474;-85
2022/11/19 06:17:40;;;;;;;6.30;5.00;;;10.50;52.60;;;;;;5068613;28;20499;-84
2022/11/19 06:20:09;;;;;;;5.80;4.33;;;10.50;52.50;;;;;;5064979;28;20786;-84
2022/11/19 06:22:38;;;;;;;6.47;4.53;;;10.50;52.40;;;;;;5068797;28;20508;-84
2022/11/19 06:25:08;;;;;;;5.33;4.73;;;10.50;52.40;;;;;;5061709;28;21062;-84
2022/11/19 06:27:36;;;;;;;5.83;4.63;;;10.50;52.40;;;;;;5060542;28;20534;-84
2022/11/19 06:30:05;;;;;;;6.03;4.80;;;10.50;52.60;;;;;;5072048;28;20536;-84
2022/11/19 06:32:33;;;;;;;6.83;4.83;;;10.50;52.40;;;;;;5069002;28;20496;-84
2022/11/19 06:35:01;;;;;;;6.60;4.83;;;10.50;52.50;;;;;;5066885;28;20466;-84
2022/11/19 06:37:29;;;;;;;6.50;4.90;;;10.50;52.50;;;;;;5070041;28;20477;-83
2022/11/19 06:39:57;;;;;;;7.40;4.90;;;10.50;52.30;;;;;;5060172;28;20501;-85
2022/11/19 06:42:36;;;;;;;5.93;5.00;;;10.50;52.50;;;;;;5070168;28;20462;-84
2022/11/19 06:45:05;;;;;;;8.83;4.97;;;10.40;52.30;;;;;;5072064;28;20537;-84
2022/11/19 06:47:33;;;;;;;7.20;4.70;;;10.40;52.30;;;;;;5069816;28;20477;-84
2022/11/19 06:50:01;;;;;;;5.50;4.67;;;10.50;52.50;;;;;;5067786;28;20442;-84
2022/11/19 06:52:28;;;;;;;7.10;5.00;;;10.40;52.30;;;;;;5078979;28;20461;-85
2022/11/19 06:54:56;;;;;;;6.07;5.30;;;10.40;52.40;;;;;;5074893;28;20457;-85
2022/11/19 06:57:25;;;;;;;5.00;4.27;;;10.40;52.50;;;;;;5064677;28;20473;-85
2022/11/19 06:59:53;;;;;;;6.73;5.00;;;10.40;52.30;;;;;;5059204;28;20473;-85
2022/11/19 07:02:21;;;;;;;5.57;4.97;;;10.40;52.50;;;;;;5067952;28;20462;-85
2022/11/19 07:04:49;;;;;;;5.90;4.97;;;10.40;52.40;;;;;;5059638;28;20462;-85
2022/11/19 07:07:17;;;;;;;5.20;4.70;;;10.40;52.30;;;;;;5070138;28;20484;-85
2022/11/19 07:09:46;;;;;;;5.57;4.83;;;10.40;52.20;;;;;;5059413;28;20447;-85
2022/11/19 07:12:13;;;;;;;5.47;4.50;;;10.40;52.20;;;;;;5066557;28;20461;-85
2022/11/19 07:14:43;;;;;;;5.30;4.60;;;10.40;52.40;;;;;;5072213;28;20449;-84
2022/11/19 07:17:10;;;;;;;8.03;5.27;;;10.40;52.20;;;;;;5070461;28;20451;-82
2022/11/19 07:19:39;;;;;;;5.83;5.00;;;10.40;52.30;;;;;;5068670;28;20465;-83
2022/11/19 07:22:06;;;;;;;5.57;4.77;;;10.40;52.40;;;;;;5065243;28;20455;-84
2022/11/19 07:24:34;;;;;;;6.40;4.90;;;10.30;52.20;;;;;;5072710;28;20457;-84
2022/11/19 07:27:02;;;;;;;5.50;4.90;;;10.40;52.30;;;;;;5072339;28;20544;-84
2022/11/19 07:29:31;;;;;;;5.27;4.73;;;10.30;52.30;;;;;;5066517;28;20450;-84
2022/11/19 07:32:00;;;;;;;6.53;5.10;;;10.30;52.40;;;;;;5065893;28;20461;-84
2022/11/19 07:34:29;;;;;;;5.17;4.67;;;10.40;52.40;;;;;;5067668;28;20450;-85
2022/11/19 07:36:57;;;;;;;6.03;4.90;;;10.40;52.40;;;;;;5056478;28;20458;-84
2022/11/19 07:39:25;;;;;;;4.83;4.27;;;10.40;52.40;;;;;;5055500;28;20478;-85
2022/11/19 07:44:39;;;;;;;5.70;4.97;;;10.40;52.40;;;;;;5079585;28;20449;-86
2022/11/19 07:47:08;;;;;;;5.77;4.90;;;10.40;52.40;;;;;;5070752;28;20457;-84
2022/11/19 07:49:36;;;;;;;6.50;5.13;;;10.40;52.40;;;;;;5062024;28;20446;-84
2022/11/19 07:52:04;;;;;;;5.33;4.63;;;10.40;52.40;;;;;;5063679;28;20457;-83
2022/11/19 07:54:32;;;;;;;6.00;5.10;;;10.40;52.40;;;;;;5092884;28;20426;-85
2022/11/19 07:57:00;;;;;;;6.13;4.60;;;10.50;52.40;;;;;;5085511;28;20472;-86
2022/11/19 07:59:28;;;;;;;5.10;4.27;;;10.50;52.40;;;;;;5071942;28;20479;-85
2022/11/19 08:01:56;;;;;;;5.90;4.90;;;10.50;52.50;;;;;;5066353;28;20450;-84
2022/11/19 08:04:27;;;;;;;8.20;5.40;;;10.50;52.50;;;;;;5058670;28;20443;-85
2022/11/19 08:06:55;;;;;;;5.60;4.60;;;10.50;52.60;;;;;;5055660;28;20470;-85
2022/11/19 08:09:23;;;;;;;6.40;4.80;;;10.60;52.70;;;;;;5066254;28;20527;-85
2022/11/19 08:11:51;;;;;;;6.30;4.70;;;10.60;52.70;;;;;;5074394;28;20482;-87
2022/11/19 08:14:19;;;;;;;6.40;5.00;;;10.70;53.00;;;;;;5087521;28;20442;-85
2022/11/19 08:19:35;;;;;;;4.63;4.23;;;10.80;53.20;;;;;;5081182;28;20450;-86
2022/11/19 08:22:03;;;;;;;5.60;4.50;;;10.90;53.30;;;;;;5078562;28;20422;-84
2022/11/19 08:24:30;;;;;;;4.70;4.20;;;11.00;53.60;;;;;;5085664;28;20457;-86
2022/11/19 08:26:59;;;;;;;5.10;4.53;;;11.10;53.80;;;;;;5089136;28;20461;-85
2022/11/19 08:29:27;;;;;;;6.97;5.00;;;11.20;53.90;;;;;;5095754;28;20464;-85
2022/11/19 08:31:54;;;;;;;6.90;4.60;;;11.40;54.00;;;;;;5087078;28;20453;-85
2022/11/19 08:34:22;;;;;;;5.50;5.00;;;11.60;54.30;;;;;;5092340;28;20480;-85
2022/11/19 08:36:51;;;;;;;5.10;4.50;;;11.70;54.30;;;;;;5087104;28;20481;-84
2022/11/19 08:39:19;;;;;;;5.50;4.77;;;11.90;54.50;;;;;;5077564;28;20476;-84
2022/11/19 08:44:38;;;;;;;5.80;5.13;;;12.20;54.70;;;;;;4996369;28;20457;-85
2022/11/19 08:47:06;;;;;;;5.97;5.13;;;12.50;55.10;;;;;;5076352;28;20957;-83
2022/11/19 08:49:34;;;;;;;5.23;4.63;;;12.80;55.40;;;;;;5071468;28;20450;-83
2022/11/19 08:52:03;;;;;;;8.80;4.70;;;13.00;55.50;;;;;;5061732;28;20451;-83
2022/11/19 08:54:31;;;;;;;6.23;5.23;;;13.30;55.70;;;;;;5061536;28;20454;-81
2022/11/19 08:56:59;;;;;;;5.53;4.73;;;13.50;55.70;;;;;;5069494;28;21006;-83
2022/11/19 08:59:27;;;;;;;6.33;5.37;;;13.70;55.90;;;;;;5077674;28;20483;-81
2022/11/19 09:01:55;;;;;;;5.90;5.03;;;13.90;56.10;;;;;;5062386;28;20450;-83
2022/11/19 09:04:23;;;;;;;5.50;5.00;;;14.10;56.20;;;;;;5075013;28;20468;-83
2022/11/19 09:06:51;;;;;;;5.23;4.73;;;14.20;56.30;;;;;;5075015;28;21247;-85
2022/11/19 09:09:20;;;;;;;5.80;5.20;;;14.40;56.40;;;;;;5075451;28;20448;-82
2022/11/19 09:11:48;;;;;;;8.30;6.00;;;14.50;56.40;;;;;;5081995;28;20426;-83
2022/11/19 09:14:16;;;;;;;5.83;5.10;;;14.60;56.50;;;;;;5084124;28;20450;-84
2022/11/19 09:16:45;;;;;;;7.33;5.30;;;14.60;56.30;;;;;;5084514;28;20464;-84
2022/11/19 09:19:13;;;;;;;6.00;5.37;;;14.70;56.40;;;;;;5084692;28;20442;-87
2022/11/19 09:21:41;;;;;;;7.77;5.30;;;14.70;56.80;;;;;;5083886;28;20437;-85
2022/11/19 09:24:09;;;;;;;6.10;5.50;;;14.70;56.90;;;;;;5083944;28;20430;-85
2022/11/19 09:26:38;;;;;;;6.93;6.00;;;14.70;56.80;;;;;;5085658;28;20446;-84
2022/11/19 09:29:06;;;;;;;6.30;5.70;;;14.70;57.20;;;;;;5083747;28;20495;-86
2022/11/19 09:31:34;;;;;;;7.73;5.77;;;14.70;57.40;;;;;;5077677;28;20444;-82
2022/11/19 09:34:02;;;;;;;6.10;5.50;;;14.80;57.50;;;;;;5075931;28;20443;-81
2022/11/19 09:36:30;;;;;;;8.87;6.57;;;15.00;57.60;;;;;;5082798;28;20457;-84
2022/11/19 09:39:00;;;;;;;6.37;5.73;;;15.10;57.60;;;;;;5086443;28;20450;-83
2022/11/19 09:41:35;;;;;;;9.80;7.07;;;15.30;57.80;;;;;;5086420;28;20534;-82
2022/11/19 09:44:12;;;;;;;7.43;6.33;;;15.50;57.90;;;;;;5084998;28;20456;-82
2022/11/19 09:46:43;;;;;;;9.33;6.53;;;15.70;57.90;;;;;;5072512;28;20477;-83
2022/11/19 09:49:14;;;;;;;8.03;6.30;;;16.00;58.00;;;;;;5065892;28;20451;-80
2022/11/19 09:51:43;;;;;;;9.03;7.03;;;16.10;58.00;;;;;;5068146;28;20457;-79
2022/11/19 09:54:14;;;;;;;9.90;7.10;;;16.40;58.20;;;;;;5071020;28;20459;-83
2022/11/19 09:56:43;;;;;;;8.23;6.60;;;16.50;58.40;;;;;;5067659;28;20469;-80
2022/11/19 09:59:16;;;;;;;9.43;7.47;;;16.60;57.40;;;;;;5070583;28;20454;-80
2022/11/19 10:01:45;;;;;;;9.77;7.50;;;16.30;53.10;;;;;;5067831;28;20462;-81
2022/11/19 10:04:12;;;;;;;8.27;7.03;;;16.00;49.00;;;;;;5071968;28;20451;-81
2022/11/19 10:06:45;;;;;;;16.43;6.90;;;15.80;48.60;;;;;;5080429;28;20469;-79
2022/11/19 10:09:35;;;;;;;11.70;7.40;;;15.70;46.80;;;;;;5069110;28;20450;-81
2022/11/19 10:12:11;;;;;;;9.90;7.53;;;15.70;46.20;;;;;;5078876;28;20986;-80
2022/11/19 10:15:00;;;;;;;16.30;10.80;;;15.50;44.00;;;;;;5074009;28;20459;-80
2022/11/19 10:17:33;;;;;;;18.03;11.90;;;15.40;44.10;;;;;;5072809;28;20481;-82
2022/11/19 10:20:11;;;;;;;25.27;15.20;;;15.40;42.80;;;;;;5074056;28;20461;-82
2022/11/19 10:22:40;;;;;;;17.90;11.60;;;15.60;43.10;;;;;;5073167;28;20461;-82
2022/11/19 10:25:15;;;;;;;15.80;10.60;;;15.50;41.50;;;;;;5074049;28;20479;-82
2022/11/19 10:27:46;;;;;;;17.87;11.97;;;15.60;40.10;;;;;;5075952;28;20456;-79
2022/11/19 10:30:18;;;;;;;15.07;9.90;;;15.30;40.60;;;;;;5083137;28;20456;-81
2022/11/19 10:32:51;;;;;;;10.27;7.70;;;15.40;39.20;;;;;;5085877;28;20412;-83
2022/11/19 10:35:21;;;;;;;10.30;7.70;;;15.30;38.30;;;;;;5086475;28;20500;-83
2022/11/19 10:37:53;;;;;;;9.10;7.00;;;15.40;38.60;;;;;;5082153;28;20429;-82
2022/11/19 10:40:21;;;;;;;7.07;6.03;;;15.60;38.70;;;;;;5066670;28;20470;-83
2022/11/19 10:42:50;;;;;;;8.80;6.83;;;15.60;37.60;;;;;;5063486;28;20446;-81
2022/11/19 10:45:21;;;;;;;7.33;6.17;;;15.80;36.70;;;;;;5065029;28;20458;-82
2022/11/19 10:47:51;;;;;;;8.50;6.53;;;15.70;36.00;;;;;;5066286;28;20972;-81
2022/11/19 10:50:19;;;;;;;8.03;6.40;;;15.90;36.10;;;;;;5069259;28;20453;-81
2022/11/19 10:52:49;;;;;;;6.43;5.60;;;15.80;35.30;;;;;;5073475;28;20477;-81
2022/11/19 10:55:21;;;;;;;6.40;5.47;;;16.10;35.80;;;;;;5071241;28;20486;-82
2022/11/19 10:57:50;;;;;;;9.83;6.90;;;16.50;34.50;;;;;;5069326;28;20477;-81
2022/11/19 11:00:19;;;;;;;9.63;6.87;;;16.30;37.40;;;;;;5068336;28;20454;-83
2022/11/19 11:02:49;;;;;;;7.70;6.43;;;16.30;36.20;;;;;;5070703;28;20454;-80
2022/11/19 11:05:18;;;;;;;7.40;5.93;;;16.40;35.70;;;;;;5066652;28;20465;-81
2022/11/19 11:07:48;;;;;;;16.57;6.57;;;16.40;34.50;;;;;;5068196;28;20462;-83
2022/11/19 11:10:34;;;;;;;8.67;6.20;;;15.80;36.90;;;;;;5066630;28;20964;-80
2022/11/19 11:16:09;;;;;;;8.63;5.00;;;17.10;40.80;;;;;;5059993;28;20474;-77
2022/11/19 11:18:39;;;;;;;6.77;4.53;;;18.60;43.50;;;;;;5057104;28;20532;-77
2022/11/19 11:21:10;;;;;;;13.97;4.40;;;19.60;43.30;;;;;;5059710;28;20481;-77
2022/11/19 11:23:47;;;;;;;10.77;4.40;;;20.30;43.10;;;;;;5062247;28;20453;-76
2022/11/19 11:26:19;;;;;;;6.23;4.53;;;20.80;43.40;;;;;;5053824;28;20470;-77
2022/11/19 11:28:54;;;;;;;23.33;4.57;;;21.10;43.60;;;;;;5065508;28;20500;-77
2022/11/19 11:31:36;;;;;;;8.23;5.10;;;21.40;43.80;;;;;;5072824;28;20472;-77
2022/11/19 11:34:05;;;;;;;8.70;4.57;;;21.70;44.00;;;;;;5072727;28;20452;-76
2022/11/19 11:36:34;;;;;;;14.70;4.83;;;22.00;44.30;;;;;;5058206;28;20879;-77
2022/11/19 11:39:03;;;;;;;9.10;4.87;;;22.30;44.10;;;;;;5054365;28;20462;-77
2022/11/19 11:41:38;;;;;;;7.13;4.70;;;22.60;44.30;;;;;;5067886;28;20456;-78
2022/11/19 11:44:27;;;;;;;4.90;4.20;;;22.90;44.40;;;;;;5053785;28;20447;-76
2022/11/19 11:46:58;;;;;;;8.73;4.70;;;23.10;44.30;;;;;;5053851;28;20479;-78
2022/11/19 11:49:28;;;;;;;10.63;5.87;;;23.40;44.50;;;;;;5061502;28;20453;-76
2022/11/19 11:52:07;;;;;;;6.83;5.20;;;23.60;44.20;;;;;;5073113;28;20477;-77
2022/11/19 11:54:35;;;;;;;8.03;5.10;;;23.80;44.60;;;;;;5059950;28;20449;-77
2022/11/19 11:57:09;;;;;;;8.40;5.17;;;23.90;44.90;;;;;;5065558;28;20465;-78
2022/11/19 11:59:37;;;;;;;5.20;4.80;;;24.10;45.20;;;;;;5065794;28;21017;-79
2022/11/19 12:02:07;;;;;;;8.90;5.50;;;24.10;45.20;;;;;;5055147;28;20454;-77
2022/11/19 12:04:35;;;;;;;7.40;5.23;;;24.20;45.20;;;;;;5062627;28;20485;-78
2022/11/19 12:07:09;;;;;;;5.93;4.80;;;24.30;45.30;;;;;;5070736;28;20473;-78
2022/11/19 12:09:42;;;;;;;8.83;4.80;;;24.40;45.00;;;;;;5057676;28;20460;-77
2022/11/19 12:12:13;;;;;;;5.57;5.00;;;24.40;44.90;;;;;;5062439;28;20528;-76
2022/11/19 12:14:44;;;;;;;9.80;5.47;;;24.50;44.40;;;;;;5062146;28;20450;-77
2022/11/19 12:17:32;;;;;;;6.17;5.53;;;24.60;44.20;;;;;;5053315;28;20426;-75
2022/11/19 12:20:17;;;;;;;6.83;5.33;;;24.70;44.10;;;;;;5052983;28;20450;-77
2022/11/19 12:22:50;;;;;;;6.27;5.20;;;24.70;43.80;;;;;;5054665;28;20504;-76
2022/11/19 12:25:21;;;;;;;4.77;4.37;;;24.80;43.80;;;;;;5064439;28;20437;-76
2022/11/19 12:28:06;;;;;;;6.37;5.27;;;24.80;43.90;;;;;;5063551;28;20442;-78
2022/11/19 12:30:37;;;;;;;6.40;4.90;;;24.80;43.70;;;;;;5071873;28;20408;-78
2022/11/19 12:33:35;;;;;;;6.40;4.40;;;24.90;43.00;;;;;;5071476;28;20466;-78
2022/11/19 12:36:08;;;;;;;11.87;4.50;;;24.80;42.60;;;;;;5035878;28;20455;-78
2022/11/19 12:38:39;;;;;;;4.43;4.03;;;24.90;42.50;;;;;;5072385;28;20446;-78
2022/11/19 12:41:43;;;;;;;5.00;3.90;;;24.90;42.20;;;;;;5074377;28;20453;-78
2022/11/19 12:44:15;;;;;;;6.10;3.80;;;25.00;41.90;;;;;;5069857;28;20421;-80
2022/11/19 12:46:49;;;;;;;4.23;3.70;;;25.10;41.60;;;;;;5074223;28;20436;-79
2022/11/19 12:49:59;;;;;;;7.33;3.83;;;25.00;41.50;;;;;;5069104;28;20429;-79
2022/11/19 12:52:35;;;;;;;8.57;4.27;;;25.10;41.70;;;;;;5043296;28;20445;-78
2022/11/19 12:55:06;;;;;;;7.50;3.60;;;25.10;41.60;;;;;;5056056;28;20457;-78
2022/11/19 12:57:40;;;;;;;11.03;4.33;;;25.10;41.60;;;;;;5069027;28;20457;-78
2022/11/19 13:00:11;;;;;;;4.30;3.90;;;25.10;41.70;;;;;;5053244;28;20487;-78
2022/11/19 13:02:43;;;;;;;8.13;3.80;;;25.20;41.70;;;;;;5063202;28;20408;-78
2022/11/19 13:05:14;;;;;;;5.03;3.60;;;25.20;41.50;;;;;;5065834;28;20863;-78
2022/11/19 13:07:44;;;;;;;5.20;4.30;;;25.20;41.30;;;;;;5061809;28;20446;-77
2022/11/19 13:10:14;;;;;;;3.20;3.00;;;25.20;41.10;;;;;;5058008;28;20458;-78
2022/11/19 13:12:43;;;;;;;7.83;4.07;;;25.20;40.90;;;;;;5052488;28;20466;-77
2022/11/19 13:15:17;;;;;;;5.17;3.77;;;25.10;40.90;;;;;;5052504;28;20448;-77
2022/11/19 13:17:46;;;;;;;6.33;3.17;;;25.00;40.70;;;;;;5051755;28;20442;-77
2022/11/19 13:20:18;;;;;;;4.33;3.93;;;24.90;40.60;;;;;;5061401;28;20442;-78
2022/11/19 13:22:47;;;;;;;4.30;3.40;;;24.70;40.40;;;;;;5064856;28;20447;-78
2022/11/19 13:25:17;;;;;;;4.63;3.50;;;24.50;40.40;;;;;;5053701;28;20474;-78
2022/11/19 13:27:45;;;;;;;3.23;3.03;;;24.40;40.60;;;;;;5053184;28;20421;-78
2022/11/19 13:30:16;;;;;;;4.27;3.53;;;24.20;40.60;;;;;;5059105;28;20926;-79